Time;durP1;ratioP1;P1;durP2;ratioP2;P2;SDS_P1;SDS_P2;PMS_P1;PMS_P2;Temp;Humidity;BMP_temperature;BMP_pressure;BME280_temperature;BME280_humidity;BME280_pressure;Samples;Min_cycle;Max_cycle;Signal;HPM_P1;HPM_P2
2021/10/26 15:40:25;;;;;;;2.80;1.87;;;;;;;;;;5017664;28;20866;-86
2021/10/26 15:42:58;;;;;;;4.90;1.97;;;;;;;;;;5055674;28;20472;-86
2021/10/26 15:45:26;;;;;;;1.97;1.70;;;;;;;;;;5045959;28;20825;-86
2021/10/26 15:47:55;;;;;;;2.00;1.63;;;;;;;;;;5041905;28;20484;-86
2021/10/26 15:50:24;;;;;;;2.73;1.70;;;;;;;;;;5032895;28;20467;-86
2021/10/26 15:52:52;;;;;;;2.07;1.87;;;;;;;;;;5048444;28;20474;-86
2021/10/26 15:55:21;;;;;;;2.00;1.80;;;;;;;;;;5038222;28;20451;-86
2021/10/26 15:57:49;;;;;;;1.90;1.70;;;;;;;;;;5038186;28;21032;-86
2021/10/26 16:00:21;;;;;;;2.70;2.10;;;;;;;;;;5030646;28;20456;-87
2021/10/26 16:02:49;;;;;;;2.87;2.37;;;;;;;;;;5040193;28;20487;-87
2021/10/26 16:05:18;;;;;;;6.80;2.10;;;;;;;;;;5037242;28;20476;-86
2021/10/26 16:07:48;;;;;;;2.83;1.97;;;;;;;;;;5031781;28;20470;-87
2021/10/26 16:10:19;;;;;;;2.07;1.97;;;;;;;;;;5051234;28;21004;-86
2021/10/26 16:12:52;;;;;;;4.30;1.90;;;;;;;;;;5030857;28;20997;-86
2021/10/26 16:15:24;;;;;;;6.60;2.27;;;;;;;;;;5046264;28;20554;-86
2021/10/26 16:17:52;;;;;;;2.00;1.90;;;;;;;;;;5021030;28;21025;-86
2021/10/26 16:20:22;;;;;;;3.50;2.00;;;;;;;;;;5023326;28;20463;-86
2021/10/26 16:22:51;;;;;;;1.93;1.67;;;;;;;;;;5035627;28;20962;-87
2021/10/26 16:25:20;;;;;;;1.80;1.70;;;;;;;;;;5034446;28;21036;-87
2021/10/26 16:27:48;;;;;;;2.17;2.03;;;;;;;;;;5046080;28;20470;-86
2021/10/26 16:30:17;;;;;;;3.27;2.47;;;;;;;;;;5043557;28;20483;-85
2021/10/26 16:32:49;;;;;;;3.97;3.10;;;;;;;;;;5041637;28;20483;-87
2021/10/26 16:35:18;;;;;;;3.80;2.60;;;;;;;;;;5047142;28;20474;-86
2021/10/26 16:37:48;;;;;;;11.30;2.70;;;;;;;;;;5035972;28;20466;-86
2021/10/26 16:40:17;;;;;;;2.93;2.73;;;;;;;;;;5053658;28;20463;-86
2021/10/26 16:43:05;;;;;;;2.67;2.40;;;;;;;;;;5052401;28;20475;-86
2021/10/26 16:45:45;;;;;;;3.73;2.43;;;;;;;;;;5040202;28;20449;-85
2021/10/26 16:48:16;;;;;;;3.77;2.70;;;;;;;;;;5037109;28;20484;-85
2021/10/26 16:51:05;;;;;;;4.30;2.60;;;;;;;;;;5042709;28;20476;-85
2021/10/26 16:53:33;;;;;;;3.00;2.70;;;;;;;;;;5065581;28;20475;-85
2021/10/26 16:56:01;;;;;;;2.50;2.30;;;;;;;;;;5058096;28;20467;-85
2021/10/26 16:58:29;;;;;;;6.03;2.60;;;;;;;;;;5045383;28;20474;-85
2021/10/26 17:00:58;;;;;;;4.00;2.63;;;;;;;;;;5030752;28;20475;-85
2021/10/26 17:03:29;;;;;;;3.70;3.40;;;;;;;;;;5043943;28;20475;-86
2021/10/26 17:05:58;;;;;;;3.30;2.43;;;;;;;;;;5043026;28;20486;-86
2021/10/26 17:08:27;;;;;;;2.67;2.47;;;;;;;;;;5061017;28;20489;-87
2021/10/26 17:10:59;;;;;;;3.60;2.97;;;;;;;;;;5070271;28;20473;-86
2021/10/26 17:13:27;;;;;;;10.13;3.90;;;;;;;;;;5057403;28;21000;-88
2021/10/26 17:15:57;;;;;;;3.70;2.77;;;;;;;;;;5055793;28;20480;-87
2021/10/26 17:18:27;;;;;;;4.33;2.80;;;;;;;;;;5052296;28;21011;-87
2021/10/26 17:20:57;;;;;;;7.30;2.70;;;;;;;;;;5065982;28;20474;-86
2021/10/26 17:23:25;;;;;;;3.30;2.40;;;;;;;;;;5045247;28;20485;-86
2021/10/26 17:25:53;;;;;;;8.70;3.30;;;;;;;;;;5061749;28;20468;-86
2021/10/26 17:28:23;;;;;;;5.90;2.57;;;;;;;;;;5049043;28;20482;-86
2021/10/26 17:30:56;;;;;;;2.73;2.53;;;;;;;;;;5063404;28;20512;-85
2021/10/26 17:33:24;;;;;;;3.53;2.43;;;;;;;;;;5053747;28;20487;-86
2021/10/26 17:35:53;;;;;;;3.77;3.27;;;;;;;;;;5042554;28;20475;-86
2021/10/26 17:38:23;;;;;;;6.53;3.50;;;;;;;;;;5049935;28;20486;-86
2021/10/26 17:41:01;;;;;;;4.60;3.30;;;;;;;;;;5047488;28;20493;-86
2021/10/26 17:43:30;;;;;;;4.37;2.97;;;;;;;;;;5042063;28;20465;-86
2021/10/26 17:45:58;;;;;;;8.83;3.37;;;;;;;;;;5040081;28;20483;-86
2021/10/26 17:48:26;;;;;;;4.83;3.00;;;;;;;;;;5059877;28;20462;-85
2021/10/26 17:50:56;;;;;;;5.33;3.00;;;;;;;;;;5055460;28;20486;-85
2021/10/26 17:53:26;;;;;;;5.77;3.63;;;;;;;;;;5059112;28;20478;-85
2021/10/26 17:55:55;;;;;;;4.00;3.00;;;;;;;;;;5055445;28;20569;-84
2021/10/26 17:58:24;;;;;;;5.20;3.20;;;;;;;;;;5065323;28;20495;-85
2021/10/26 18:00:53;;;;;;;8.10;3.37;;;;;;;;;;5053303;28;20482;-86
2021/10/26 18:03:23;;;;;;;5.57;2.57;;;;;;;;;;5059806;28;20479;-85
2021/10/26 18:05:52;;;;;;;3.40;2.70;;;;;;;;;;5064425;28;21023;-85
2021/10/26 18:08:21;;;;;;;5.60;3.53;;;;;;;;;;5068593;28;20862;-85
2021/10/26 18:10:51;;;;;;;3.60;3.30;;;;;;;;;;5062483;28;20768;-86
2021/10/26 18:13:21;;;;;;;5.40;3.77;;;;;;;;;;5055164;28;20474;-87
2021/10/26 18:15:50;;;;;;;6.00;4.07;;;;;;;;;;5032556;28;20465;-87
2021/10/26 18:18:19;;;;;;;6.73;4.30;;;;;;;;;;5042999;28;20480;-88
2021/10/26 18:20:48;;;;;;;9.13;4.37;;;;;;;;;;5054737;28;20557;-86
2021/10/26 18:23:16;;;;;;;6.60;3.80;;;;;;;;;;5041926;28;20481;-86
2021/10/26 18:25:45;;;;;;;4.50;3.47;;;;;;;;;;5061630;28;20476;-86
2021/10/26 18:28:14;;;;;;;4.70;3.97;;;;;;;;;;5060781;28;20474;-87
2021/10/26 18:30:43;;;;;;;7.33;4.20;;;;;;;;;;5054755;28;21014;-86
2021/10/26 18:33:13;;;;;;;7.57;4.00;;;;;;;;;;5042028;28;20487;-86
2021/10/26 18:35:41;;;;;;;4.87;4.20;;;;;;;;;;5057658;28;20570;-86
2021/10/26 18:38:13;;;;;;;4.20;3.80;;;;;;;;;;5051535;28;20475;-86
2021/10/26 18:40:43;;;;;;;9.13;4.83;;;;;;;;;;5039489;28;20468;-86
2021/10/26 18:43:13;;;;;;;6.50;3.90;;;;;;;;;;5046731;28;20474;-86
2021/10/26 18:45:45;;;;;;;31.03;5.20;;;;;;;;;;5054341;28;20475;-87
2021/10/26 18:48:14;;;;;;;5.83;3.97;;;;;;;;;;5049004;28;20474;-86
2021/10/26 18:50:42;;;;;;;5.00;4.40;;;;;;;;;;5054884;28;20969;-86
2021/10/26 18:53:11;;;;;;;8.37;4.80;;;;;;;;;;5052340;28;20482;-86
2021/10/26 18:55:40;;;;;;;8.50;4.47;;;;;;;;;;5045607;28;20478;-85
2021/10/26 18:58:12;;;;;;;7.33;4.80;;;;;;;;;;5040747;28;20586;-86
2021/10/26 19:00:41;;;;;;;9.20;6.20;;;;;;;;;;5035070;28;20479;-85
2021/10/26 19:03:11;;;;;;;17.80;11.23;;;;;;;;;;5038142;28;20489;-85
2021/10/26 19:05:42;;;;;;;9.40;6.97;;;;;;;;;;5043285;28;20508;-85
2021/10/26 19:08:10;;;;;;;6.83;4.60;;;;;;;;;;5051394;28;20501;-85
2021/10/26 19:10:39;;;;;;;6.40;4.47;;;;;;;;;;5058149;28;20482;-86
2021/10/26 19:13:07;;;;;;;6.47;4.30;;;;;;;;;;5048944;28;20465;-86
2021/10/26 19:15:37;;;;;;;6.60;4.67;;;;;;;;;;5052654;28;20508;-86
2021/10/26 19:18:05;;;;;;;11.10;4.90;;;;;;;;;;5035525;28;20488;-86
2021/10/26 19:20:54;;;;;;;5.67;4.07;;;;;;;;;;5038715;28;20902;-85
2021/10/26 19:23:22;;;;;;;6.03;4.90;;;;;;;;;;5046150;28;20529;-87
2021/10/26 19:25:50;;;;;;;9.13;5.20;;;;;;;;;;5042677;28;21012;-86
2021/10/26 19:28:21;;;;;;;6.13;5.00;;;;;;;;;;5048440;28;20479;-85
2021/10/26 19:30:49;;;;;;;10.80;5.97;;;;;;;;;;5054187;28;20476;-88
2021/10/26 19:33:18;;;;;;;6.93;5.87;;;;;;;;;;5035515;28;20492;-87
2021/10/26 19:35:46;;;;;;;10.63;5.90;;;;;;;;;;5053685;28;20489;-86
2021/10/26 19:38:16;;;;;;;7.87;5.17;;;;;;;;;;5038398;28;20476;-86
2021/10/26 19:40:44;;;;;;;5.30;4.57;;;;;;;;;;5057089;28;20477;-85
2021/10/26 19:43:23;;;;;;;8.53;5.00;;;;;;;;;;5046996;28;20475;-84
2021/10/26 19:45:52;;;;;;;5.63;4.80;;;;;;;;;;5025709;28;20490;-85
2021/10/26 19:48:20;;;;;;;6.33;4.93;;;;;;;;;;5046617;28;21517;-85
2021/10/26 19:50:48;;;;;;;8.20;5.70;;;;;;;;;;5035228;28;20473;-85
2021/10/26 19:53:18;;;;;;;7.50;4.67;;;;;;;;;;5039623;28;20474;-87
2021/10/26 19:55:46;;;;;;;11.83;4.20;;;;;;;;;;5044489;28;20468;-85
2021/10/26 19:58:15;;;;;;;8.00;3.97;;;;;;;;;;5050116;28;20469;-85
2021/10/26 20:00:43;;;;;;;8.73;4.83;;;;;;;;;;5025713;28;20491;-84
2021/10/26 20:03:13;;;;;;;5.93;4.67;;;;;;;;;;5051358;28;20541;-83
2021/10/26 20:05:43;;;;;;;6.73;5.17;;;;;;;;;;5039656;28;20567;-83
2021/10/26 20:08:13;;;;;;;7.83;5.20;;;;;;;;;;5050646;28;20488;-83
2021/10/26 20:10:45;;;;;;;7.33;5.30;;;;;;;;;;5053991;28;20467;-82
2021/10/26 20:13:14;;;;;;;7.43;4.77;;;;;;;;;;5037717;28;20486;-83
2021/10/26 20:15:44;;;;;;;8.33;4.67;;;;;;;;;;5043778;28;20857;-84
2021/10/26 20:18:13;;;;;;;6.63;4.90;;;;;;;;;;5041699;28;20465;-81
2021/10/26 20:20:43;;;;;;;9.63;5.07;;;;;;;;;;5048550;28;20469;-81
2021/10/26 20:23:34;;;;;;;9.27;5.60;;;;;;;;;;5046647;28;20465;-82
2021/10/26 20:26:08;;;;;;;6.20;4.67;;;;;;;;;;5049378;28;20734;-82
2021/10/26 20:28:37;;;;;;;5.53;4.50;;;;;;;;;;5048436;28;20475;-81
2021/10/26 20:31:07;;;;;;;9.53;5.70;;;;;;;;;;5042674;28;20594;-81
2021/10/26 20:33:38;;;;;;;4.53;4.13;;;;;;;;;;5032148;28;20479;-84
2021/10/26 20:36:07;;;;;;;9.17;4.80;;;;;;;;;;5027274;28;20475;-86
2021/10/26 20:38:36;;;;;;;12.90;4.90;;;;;;;;;;5044316;28;20504;-85
2021/10/26 20:41:07;;;;;;;8.90;5.00;;;;;;;;;;5043849;28;20477;-85
2021/10/26 20:43:36;;;;;;;7.23;4.40;;;;;;;;;;5042173;28;20472;-85
2021/10/26 20:46:05;;;;;;;8.13;4.60;;;;;;;;;;5044486;28;20497;-85
2021/10/26 20:48:33;;;;;;;5.73;4.23;;;;;;;;;;5038243;28;20481;-85
2021/10/26 20:51:09;;;;;;;4.13;3.73;;;;;;;;;;5031056;28;20470;-85
2021/10/26 20:53:38;;;;;;;6.90;4.23;;;;;;;;;;5051999;28;22348;-84
2021/10/26 20:56:08;;;;;;;8.53;4.70;;;;;;;;;;5054411;28;20496;-85
2021/10/26 20:58:36;;;;;;;6.57;3.97;;;;;;;;;;5052605;28;21014;-84
2021/10/26 21:01:07;;;;;;;6.70;4.00;;;;;;;;;;5046815;28;20459;-85
2021/10/26 21:03:36;;;;;;;7.80;4.30;;;;;;;;;;5040469;28;20894;-85
2021/10/26 21:06:04;;;;;;;10.33;5.13;;;;;;;;;;5048408;28;21148;-85
2021/10/26 21:08:34;;;;;;;7.30;4.50;;;;;;;;;;5046613;28;20468;-84
2021/10/26 21:11:05;;;;;;;7.03;4.30;;;;;;;;;;5047632;28;20475;-85
2021/10/26 21:13:35;;;;;;;5.47;3.60;;;;;;;;;;5048923;28;20473;-84
2021/10/26 21:16:06;;;;;;;6.57;4.10;;;;;;;;;;5037256;28;20474;-85
2021/10/26 21:18:34;;;;;;;8.30;4.40;;;;;;;;;;5053593;28;20475;-85
2021/10/26 21:21:03;;;;;;;5.40;3.97;;;;;;;;;;5041686;28;20473;-85
2021/10/26 21:23:31;;;;;;;7.50;4.00;;;;;;;;;;5045017;28;20514;-89
2021/10/26 21:26:00;;;;;;;4.93;4.10;;;;;;;;;;5056194;28;21018;-84
2021/10/26 21:28:29;;;;;;;5.00;4.13;;;;;;;;;;5057017;28;20476;-84
2021/10/26 21:31:01;;;;;;;7.70;4.53;;;;;;;;;;5050743;28;20509;-84
2021/10/26 21:33:32;;;;;;;5.33;4.23;;;;;;;;;;5049754;28;20475;-84
2021/10/26 21:36:02;;;;;;;4.23;3.70;;;;;;;;;;5036380;28;20472;-84
2021/10/26 21:38:30;;;;;;;7.10;4.67;;;;;;;;;;5044154;28;20472;-84
2021/10/26 21:41:02;;;;;;;5.57;3.90;;;;;;;;;;5051728;28;20471;-85
2021/10/26 21:43:31;;;;;;;7.23;4.63;;;;;;;;;;5043396;28;20492;-85
2021/10/26 21:45:59;;;;;;;7.87;4.97;;;;;;;;;;5050516;28;20493;-84
2021/10/26 21:48:29;;;;;;;7.57;4.50;;;;;;;;;;5047711;28;20467;-84
2021/10/26 21:50:57;;;;;;;7.83;4.33;;;;;;;;;;5058331;28;20840;-84
2021/10/26 21:53:25;;;;;;;7.80;4.50;;;;;;;;;;5020059;28;20481;-85
2021/10/26 21:55:54;;;;;;;6.77;4.43;;;;;;;;;;5042492;28;20495;-85
2021/10/26 21:58:22;;;;;;;6.40;4.80;;;;;;;;;;5052833;28;21086;-85
2021/10/26 22:00:50;;;;;;;10.10;5.30;;;;;;;;;;5046812;28;20476;-84
2021/10/26 22:03:19;;;;;;;8.10;4.90;;;;;;;;;;5032106;28;21011;-84
2021/10/26 22:05:49;;;;;;;7.37;4.40;;;;;;;;;;5038344;28;20479;-85
2021/10/26 22:08:21;;;;;;;7.17;4.63;;;;;;;;;;5044415;28;20984;-84
2021/10/26 22:10:49;;;;;;;8.13;4.60;;;;;;;;;;5058929;28;20468;-84
2021/10/26 22:13:17;;;;;;;7.60;4.97;;;;;;;;;;5052322;28;20476;-84
2021/10/26 22:15:45;;;;;;;7.90;4.63;;;;;;;;;;5038823;28;20475;-84
2021/10/26 22:18:14;;;;;;;6.67;5.10;;;;;;;;;;5052445;28;20476;-84
2021/10/26 22:20:42;;;;;;;6.87;4.63;;;;;;;;;;5045557;28;20469;-84
2021/10/26 22:23:12;;;;;;;7.70;5.00;;;;;;;;;;5044706;28;20495;-84
2021/10/26 22:25:40;;;;;;;6.87;4.73;;;;;;;;;;5055062;28;20473;-84
2021/10/26 22:28:09;;;;;;;6.77;4.50;;;;;;;;;;5033292;28;20488;-84
2021/10/26 22:30:38;;;;;;;7.30;4.70;;;;;;;;;;5042124;28;20840;-84
2021/10/26 22:33:06;;;;;;;7.43;5.20;;;;;;;;;;5047787;28;20476;-84
2021/10/26 22:35:36;;;;;;;4.40;4.00;;;;;;;;;;5054657;28;20899;-84
2021/10/26 22:38:05;;;;;;;6.40;4.80;;;;;;;;;;5042040;28;25242;-84
2021/10/26 22:40:37;;;;;;;5.83;4.43;;;;;;;;;;5041356;28;20486;-84
2021/10/26 22:43:05;;;;;;;8.47;4.70;;;;;;;;;;5044360;28;20482;-84
2021/10/26 22:45:33;;;;;;;7.17;5.03;;;;;;;;;;5051828;28;20485;-85
2021/10/26 22:48:04;;;;;;;8.60;5.10;;;;;;;;;;5044133;28;20483;-85
2021/10/26 22:50:32;;;;;;;8.00;4.70;;;;;;;;;;5037819;28;20480;-85
2021/10/26 22:53:00;;;;;;;7.63;5.00;;;;;;;;;;5034403;28;20482;-84
2021/10/26 22:55:29;;;;;;;4.67;4.23;;;;;;;;;;5051034;28;20464;-84
2021/10/26 22:57:58;;;;;;;5.00;4.43;;;;;;;;;;5031909;28;20467;-84
2021/10/26 23:00:26;;;;;;;5.00;4.50;;;;;;;;;;5043689;28;20486;-84
2021/10/26 23:02:55;;;;;;;5.53;4.40;;;;;;;;;;5051100;28;20474;-84
2021/10/26 23:05:24;;;;;;;6.87;5.20;;;;;;;;;;5035326;28;22142;-85
2021/10/26 23:07:53;;;;;;;8.33;5.40;;;;;;;;;;5030933;28;21021;-85
2021/10/26 23:10:21;;;;;;;7.50;4.97;;;;;;;;;;5043134;28;20470;-85
2021/10/26 23:12:49;;;;;;;8.10;4.53;;;;;;;;;;5054060;28;20479;-85
2021/10/26 23:15:19;;;;;;;5.90;4.60;;;;;;;;;;5056386;28;20464;-84
2021/10/26 23:17:47;;;;;;;6.03;5.00;;;;;;;;;;5046532;28;20477;-85
2021/10/26 23:20:17;;;;;;;5.77;5.17;;;;;;;;;;5033720;28;20483;-84
2021/10/26 23:22:46;;;;;;;6.03;4.47;;;;;;;;;;5016125;28;20504;-84
2021/10/26 23:25:14;;;;;;;8.07;5.90;;;;;;;;;;5040287;28;20472;-84
2021/10/26 23:27:43;;;;;;;6.30;4.87;;;;;;;;;;5038614;28;20483;-85
2021/10/26 23:30:11;;;;;;;10.50;4.80;;;;;;;;;;5031393;28;20478;-84
2021/10/26 23:32:41;;;;;;;7.83;5.57;;;;;;;;;;5030957;28;20841;-84
2021/10/26 23:35:09;;;;;;;9.50;4.87;;;;;;;;;;5031819;28;20463;-84
2021/10/26 23:37:38;;;;;;;7.90;5.67;;;;;;;;;;5013852;28;20490;-84
2021/10/26 23:40:06;;;;;;;9.47;5.27;;;;;;;;;;5025008;28;20570;-84
2021/10/26 23:42:35;;;;;;;6.20;5.03;;;;;;;;;;5029593;28;20485;-83
2021/10/26 23:45:03;;;;;;;5.90;5.00;;;;;;;;;;5008551;28;20466;-84
2021/10/26 23:47:31;;;;;;;8.40;5.27;;;;;;;;;;5017303;28;20484;-85
2021/10/26 23:50:01;;;;;;;6.57;4.70;;;;;;;;;;5021741;28;20507;-86
2021/10/26 23:52:29;;;;;;;6.87;4.73;;;;;;;;;;5025143;28;20498;-84
2021/10/26 23:54:57;;;;;;;6.27;4.97;;;;;;;;;;5021992;28;20472;-85
2021/10/26 23:57:26;;;;;;;6.30;5.00;;;;;;;;;;5028330;28;20479;-85
2021/10/26 23:59:54;;;;;;;10.40;5.37;;;;;;;;;;5025202;28;20488;-84
